createdAt,value
2018-09-14T00:00:01.540Z,78.20
2018-09-14T00:00:39.665Z,78.10
2018-09-14T00:01:17.705Z,78.10
2018-09-14T00:01:55.759Z,78.20
2018-09-14T00:02:34.514Z,78.10
2018-09-14T00:03:12.890Z,78.20
2018-09-14T00:03:50.933Z,78.90
2018-09-14T00:04:29.683Z,78.20
2018-09-14T00:05:07.731Z,78.10
2018-09-14T00:05:45.918Z,78.10
2018-09-14T00:06:23.862Z,78.10
2018-09-14T00:07:02.200Z,78.20
2018-09-14T00:07:40.491Z,78.20
2018-09-14T00:08:18.559Z,78.20
2018-09-14T00:08:56.640Z,78.20
2018-09-14T00:09:34.855Z,78.20
2018-09-14T00:10:13.060Z,78.20
2018-09-14T00:10:51.071Z,78.20
2018-09-14T00:11:29.857Z,78.20
2018-09-14T00:12:08.025Z,78.20
2018-09-14T00:12:46.073Z,78.20
2018-09-14T00:13:24.327Z,78.20
2018-09-14T00:14:02.721Z,78.20
2018-09-14T00:14:40.702Z,78.20
2018-09-14T00:15:18.989Z,78.20
2018-09-14T00:15:58.033Z,78.20
2018-09-14T00:16:36.465Z,78.20
2018-09-14T00:17:15.432Z,78.20
2018-09-14T00:17:53.682Z,78.20
2018-09-14T00:18:33.114Z,78.20
2018-09-14T00:19:11.176Z,78.30
2018-09-14T00:19:51.141Z,78.40
2018-09-14T00:20:31.067Z,78.40
2018-09-14T00:21:09.584Z,78.40
2018-09-14T00:21:47.666Z,78.30
2018-09-14T00:22:26.161Z,78.40
2018-09-14T00:23:04.082Z,78.40
2018-09-14T00:23:41.930Z,78.30
2018-09-14T00:24:20.857Z,78.30
2018-09-14T00:25:00.284Z,78.30
2018-09-14T00:25:38.227Z,78.30
2018-09-14T00:26:16.848Z,78.30
2018-09-14T00:26:54.728Z,78.40
2018-09-14T00:27:32.644Z,78.40
2018-09-14T00:28:10.771Z,78.50
2018-09-14T00:28:49.363Z,78.50
2018-09-14T00:29:27.362Z,78.50
2018-09-14T00:30:05.375Z,78.40
2018-09-14T00:30:43.300Z,78.50
2018-09-14T00:31:21.298Z,78.50
2018-09-14T00:31:59.076Z,78.50
2018-09-14T00:32:37.070Z,78.50
2018-09-14T00:33:16.255Z,78.50
2018-09-14T00:33:54.317Z,78.50
2018-09-14T00:34:32.426Z,78.50
2018-09-14T00:35:10.343Z,78.40
2018-09-14T00:35:48.153Z,78.40
2018-09-14T00:36:26.352Z,78.40
2018-09-14T00:37:05.431Z,78.40
2018-09-14T00:37:44.076Z,78.50
2018-09-14T00:38:21.934Z,78.50
2018-09-14T00:38:59.852Z,78.50
2018-09-14T00:39:37.824Z,78.60
2018-09-14T00:46:23.961Z,78.70
2018-09-14T00:47:01.874Z,78.60
2018-09-14T00:47:39.868Z,78.50
2018-09-14T00:48:17.769Z,78.50
2018-09-14T00:48:55.748Z,78.50
2018-09-14T00:49:33.696Z,78.50
2018-09-14T00:50:12.224Z,78.50
2018-09-14T00:50:50.760Z,78.60
2018-09-14T00:51:28.679Z,78.60
2018-09-14T00:52:06.620Z,78.60
2018-09-14T00:52:44.599Z,78.60
2018-09-14T00:53:22.513Z,78.70
2018-09-14T00:54:01.017Z,78.60
2018-09-14T00:54:39.421Z,78.60
2018-09-14T00:55:18.421Z,78.70
2018-09-14T00:55:57.114Z,78.80
2018-09-14T00:56:35.016Z,78.80
2018-09-14T00:57:12.953Z,78.80
2018-09-14T00:57:50.837Z,78.80
2018-09-14T00:58:28.751Z,78.90
2018-09-14T00:59:06.897Z,78.90
2018-09-14T00:59:45.048Z,78.90
2018-09-14T01:00:22.850Z,78.90
2018-09-14T01:01:00.837Z,78.90
2018-09-14T01:01:38.705Z,79.00
2018-09-14T01:02:17.802Z,79.00
2018-09-14T01:02:55.838Z,79.00
2018-09-14T01:03:35.095Z,78.90
2018-09-14T01:04:13.178Z,79.00
2018-09-14T01:04:51.058Z,79.00
2018-09-14T01:05:28.877Z,79.00
2018-09-14T01:06:06.796Z,79.10
2018-09-14T01:06:44.705Z,79.10
2018-09-14T01:07:23.652Z,79.10
2018-09-14T01:08:02.477Z,79.00
2018-09-14T01:08:40.845Z,79.80
2018-09-14T01:09:22.898Z,79.20
2018-09-14T01:10:00.950Z,79.30
2018-09-14T01:10:38.919Z,79.30
2018-09-14T01:11:16.803Z,79.50
2018-09-14T01:11:54.744Z,79.50
2018-09-14T01:12:33.370Z,79.50
2018-09-14T01:13:11.364Z,79.60
2018-09-14T01:13:49.493Z,79.50
2018-09-14T01:14:27.877Z,79.40
2018-09-14T01:15:05.897Z,79.50
2018-09-14T01:15:46.888Z,79.60
2018-09-14T01:16:26.087Z,79.60
2018-09-14T01:17:04.678Z,79.60
2018-09-14T01:17:42.576Z,79.50
2018-09-14T01:18:20.586Z,79.60
2018-09-14T01:18:58.349Z,79.60
2018-09-14T01:19:36.169Z,79.80
2018-09-14T01:20:14.264Z,80.00
2018-09-14T01:20:53.890Z,79.80
2018-09-14T01:21:32.899Z,79.80
2018-09-14T01:22:10.831Z,79.80
2018-09-14T01:22:48.744Z,79.90
2018-09-14T01:23:27.618Z,79.80
2018-09-14T01:24:05.568Z,79.80
2018-09-14T01:24:44.667Z,79.80
2018-09-14T01:25:23.055Z,79.80
2018-09-14T01:26:01.454Z,79.80
2018-09-14T01:26:39.674Z,79.80
2018-09-14T01:27:17.667Z,79.80
2018-09-14T01:27:55.634Z,79.80
2018-09-14T01:28:33.660Z,79.70
2018-09-14T01:29:11.443Z,79.60
2018-09-14T01:29:51.957Z,79.70
2018-09-14T01:30:29.875Z,79.80
2018-09-14T01:31:07.800Z,79.90
2018-09-14T01:31:45.659Z,79.90
2018-09-14T01:32:23.712Z,79.90
2018-09-14T01:33:01.511Z,80.00
2018-09-14T01:33:39.566Z,80.00
2018-09-14T01:34:17.745Z,80.00
2018-09-14T01:34:55.633Z,79.90
2018-09-14T01:35:37.698Z,79.90
2018-09-14T01:36:16.586Z,80.00
2018-09-14T01:36:54.531Z,80.00
2018-09-14T01:37:32.295Z,79.90
2018-09-14T01:38:14.524Z,79.90
2018-09-14T01:38:53.501Z,79.90
2018-09-14T01:39:31.408Z,80.00
2018-09-14T01:40:09.221Z,80.00
2018-09-14T01:40:47.111Z,80.00
2018-09-14T01:41:25.073Z,80.00
2018-09-14T01:42:02.965Z,79.90
2018-09-14T01:42:41.424Z,79.90
2018-09-14T01:43:19.458Z,80.00
2018-09-14T01:43:57.258Z,80.00
2018-09-14T01:44:35.251Z,80.00
2018-09-14T01:45:13.219Z,80.70
2018-09-14T01:45:51.335Z,80.00
2018-09-14T01:46:29.153Z,79.90
2018-09-14T01:47:07.839Z,79.90
2018-09-14T01:47:46.029Z,80.00
2018-09-14T01:48:23.829Z,79.90
2018-09-14T01:49:01.797Z,79.90
2018-09-14T01:49:39.806Z,79.90
2018-09-14T01:50:17.763Z,79.90
2018-09-14T01:50:55.696Z,79.90
2018-09-14T01:51:34.179Z,79.90
2018-09-14T01:52:12.136Z,80.60
2018-09-14T01:52:50.096Z,79.80
2018-09-14T01:53:28.180Z,79.80
2018-09-14T01:54:06.095Z,79.90
2018-09-14T01:54:44.023Z,79.90
2018-09-14T01:55:22.230Z,79.80
2018-09-14T01:56:00.999Z,79.80
2018-09-14T01:56:39.168Z,80.00
2018-09-14T01:57:17.139Z,79.90
2018-09-14T01:57:55.119Z,80.00
2018-09-14T01:58:33.136Z,79.90
2018-09-14T01:59:11.848Z,79.90
2018-09-14T01:59:49.739Z,80.00
2018-09-14T02:00:27.782Z,80.00
2018-09-14T02:01:05.670Z,80.00
2018-09-14T02:01:43.599Z,80.00
2018-09-14T02:02:21.582Z,79.90
2018-09-14T02:02:59.544Z,79.90
2018-09-14T02:03:37.582Z,79.90
2018-09-14T02:04:16.237Z,79.80
2018-09-14T02:04:56.675Z,79.80
2018-09-14T02:05:34.542Z,79.80
2018-09-14T02:06:12.514Z,79.80
2018-09-14T02:06:50.508Z,79.70
2018-09-14T02:07:28.438Z,79.70
2018-09-14T02:08:06.400Z,79.90
2018-09-14T02:08:45.526Z,79.80
2018-09-14T02:09:24.622Z,79.80
2018-09-14T02:10:02.510Z,79.70
2018-09-14T02:10:40.545Z,79.70
2018-09-14T02:11:18.537Z,79.80
2018-09-14T02:11:56.474Z,79.80
2018-09-14T02:12:34.450Z,79.60
2018-09-14T02:13:14.294Z,79.70
2018-09-14T02:13:52.433Z,79.70
2018-09-14T02:14:30.340Z,79.70
2018-09-14T02:15:08.333Z,79.60
2018-09-14T02:15:46.270Z,79.60
2018-09-14T02:16:24.179Z,79.60
2018-09-14T02:17:02.188Z,79.60
2018-09-14T02:17:40.511Z,79.50
2018-09-14T02:18:18.682Z,79.50
2018-09-14T02:18:56.581Z,79.60
2018-09-14T02:19:34.483Z,79.50
2018-09-14T02:20:12.585Z,79.50
2018-09-14T02:20:50.670Z,79.60
2018-09-14T02:21:29.241Z,79.50
2018-09-14T02:22:07.465Z,79.40
2018-09-14T02:22:45.391Z,79.50
2018-09-14T02:23:23.638Z,79.50
2018-09-14T02:24:01.617Z,79.40
2018-09-14T02:24:39.870Z,79.40
2018-09-14T02:25:18.028Z,79.40
2018-09-14T02:25:57.260Z,79.40
2018-09-14T02:26:35.805Z,79.40
2018-09-14T02:27:14.195Z,79.50
2018-09-14T02:27:52.370Z,79.50
2018-09-14T02:28:30.604Z,79.30
2018-09-14T02:29:08.755Z,79.30
2018-09-14T02:29:47.820Z,79.20
2018-09-14T02:30:26.185Z,79.20
2018-09-14T02:31:04.784Z,79.20
2018-09-14T02:31:42.997Z,79.20
2018-09-14T02:32:21.261Z,79.30
2018-09-14T02:32:59.469Z,79.30
2018-09-14T02:33:37.621Z,79.30
2018-09-14T02:34:16.047Z,79.30
2018-09-14T02:34:54.504Z,79.20
2018-09-14T02:35:33.943Z,79.30
2018-09-14T02:36:12.140Z,79.30
2018-09-14T02:36:50.368Z,79.30
2018-09-14T02:37:28.497Z,79.30
2018-09-14T02:38:06.652Z,79.30
2018-09-14T02:38:45.006Z,79.30
2018-09-14T02:39:23.787Z,79.40
2018-09-14T02:40:02.134Z,79.40
2018-09-14T02:40:40.096Z,79.50
2018-09-14T02:41:17.999Z,79.50
2018-09-14T02:41:56.876Z,79.40
2018-09-14T02:42:36.911Z,79.50
2018-09-14T02:43:16.291Z,79.60
2018-09-14T02:43:54.774Z,79.60
2018-09-14T02:44:33.078Z,79.60
2018-09-14T02:45:11.004Z,79.60
2018-09-14T02:45:48.981Z,79.50
2018-09-14T02:46:28.065Z,79.60
2018-09-14T02:47:06.134Z,79.60
2018-09-14T02:47:45.655Z,79.70
2018-09-14T02:48:23.981Z,79.80
2018-09-14T02:49:02.026Z,79.70
2018-09-14T02:49:43.335Z,79.60
2018-09-14T02:50:21.494Z,79.80
2018-09-14T02:50:59.414Z,79.70
2018-09-14T02:51:37.547Z,79.70
2018-09-14T02:52:17.012Z,79.60
2018-09-14T02:52:55.287Z,79.50
2018-09-14T02:53:33.452Z,79.50
2018-09-14T02:54:12.378Z,79.50
2018-09-14T02:54:50.444Z,79.50
2018-09-14T02:55:29.735Z,79.60
2018-09-14T02:56:07.641Z,79.50
2018-09-14T02:56:46.228Z,79.70
2018-09-14T02:57:25.362Z,79.50
2018-09-14T02:58:03.347Z,79.50
2018-09-14T02:58:42.313Z,79.50
2018-09-14T02:59:20.366Z,79.50
2018-09-14T02:59:58.287Z,79.40
2018-09-14T03:00:36.837Z,79.50
2018-09-14T03:01:16.058Z,79.30
2018-09-14T03:01:53.976Z,79.40
2018-09-14T03:02:32.646Z,79.40
2018-09-14T03:03:10.586Z,79.40
2018-09-14T03:03:48.710Z,79.60
2018-09-14T03:04:26.668Z,79.50
2018-09-14T03:05:04.620Z,79.50
2018-09-14T03:05:42.748Z,79.60
2018-09-14T03:06:20.692Z,79.60
2018-09-14T03:06:58.712Z,79.40
2018-09-14T03:07:36.676Z,79.50
2018-09-14T03:08:14.423Z,79.50
2018-09-14T03:08:52.379Z,79.60
2018-09-14T03:09:30.667Z,79.60
2018-09-14T03:10:09.276Z,79.70
2018-09-14T03:10:47.130Z,79.70
2018-09-14T03:11:25.117Z,79.70
2018-09-14T03:12:03.033Z,79.70
2018-09-14T03:12:40.895Z,79.80
2018-09-14T03:13:18.674Z,79.80
2018-09-14T03:13:57.977Z,79.90
2018-09-14T03:14:36.376Z,79.80
2018-09-14T03:15:14.166Z,79.90
2018-09-14T03:15:52.732Z,79.90
2018-09-14T03:16:30.655Z,79.90
2018-09-14T03:17:08.678Z,79.70
2018-09-14T03:17:46.602Z,79.80
2018-09-14T03:18:26.192Z,79.80
2018-09-14T03:19:04.244Z,79.60
2018-09-14T03:19:42.095Z,79.70
2018-09-14T03:20:19.974Z,79.70
2018-09-14T03:20:58.763Z,79.70
2018-09-14T03:21:36.613Z,79.80
2018-09-14T03:22:14.679Z,79.80
2018-09-14T03:22:53.809Z,79.60
2018-09-14T03:23:31.804Z,79.70
2018-09-14T03:24:10.631Z,79.60
2018-09-14T03:24:49.416Z,79.40
2018-09-14T03:25:27.451Z,79.30
2018-09-14T03:26:05.413Z,79.50
2018-09-14T03:26:44.058Z,79.30
2018-09-14T03:27:23.349Z,79.60
2018-09-14T03:28:01.430Z,79.60
2018-09-14T03:28:39.359Z,79.30
2018-09-14T03:29:17.337Z,79.30
2018-09-14T03:29:55.280Z,79.50
2018-09-14T03:30:33.237Z,79.40
2018-09-14T03:31:11.789Z,79.50
2018-09-14T03:31:50.130Z,79.50
2018-09-14T03:32:28.023Z,79.40
2018-09-14T03:33:05.890Z,79.40
2018-09-14T03:33:43.743Z,79.40
2018-09-14T03:34:21.558Z,79.40
2018-09-14T03:34:59.539Z,79.40
2018-09-14T03:35:38.797Z,79.40
2018-09-14T03:36:16.818Z,79.40
2018-09-14T03:36:55.038Z,79.40
2018-09-14T03:37:33.931Z,79.40
2018-09-14T03:38:11.873Z,79.40
2018-09-14T03:38:49.677Z,79.40
2018-09-14T03:39:28.504Z,79.40
2018-09-14T03:40:06.799Z,79.30
2018-09-14T03:40:44.778Z,79.40
2018-09-14T03:41:22.667Z,79.30
2018-09-14T03:42:00.660Z,79.30
2018-09-14T03:42:38.673Z,79.20
2018-09-14T03:43:16.699Z,79.30
2018-09-14T03:43:55.674Z,79.20
2018-09-14T03:44:34.951Z,79.20
2018-09-14T03:45:12.910Z,79.20
2018-09-14T03:45:50.862Z,79.20
2018-09-14T03:46:28.867Z,79.10
2018-09-14T03:47:06.957Z,79.10
2018-09-14T03:47:45.043Z,79.10
2018-09-14T03:48:23.378Z,79.10
2018-09-14T03:49:02.491Z,79.10
2018-09-14T03:49:41.512Z,79.10
2018-09-14T03:50:19.812Z,79.00
2018-09-14T03:50:58.472Z,79.10
2018-09-14T03:51:36.521Z,79.10
2018-09-14T03:52:14.298Z,79.10
2018-09-14T03:52:52.357Z,79.00
2018-09-14T03:53:30.724Z,79.10
2018-09-14T03:54:08.639Z,79.00
2018-09-14T03:54:46.623Z,78.90
2018-09-14T03:55:24.553Z,79.10
2018-09-14T03:56:02.446Z,79.00
2018-09-14T03:56:40.366Z,79.00
2018-09-14T03:57:20.383Z,79.00
2018-09-14T03:57:59.026Z,79.00
2018-09-14T03:58:36.971Z,78.80
2018-09-14T03:59:14.927Z,78.90
2018-09-14T03:59:52.900Z,78.80
2018-09-14T04:00:30.845Z,79.60
2018-09-14T04:01:08.768Z,78.80
2018-09-14T04:01:46.948Z,78.90
2018-09-14T04:02:25.131Z,78.90
2018-09-14T04:03:03.019Z,78.80
2018-09-14T04:03:40.974Z,78.80
2018-09-14T04:04:18.920Z,78.80
2018-09-14T04:04:56.783Z,78.80
2018-09-14T04:05:35.547Z,78.80
2018-09-14T04:06:13.898Z,78.70
2018-09-14T04:06:52.009Z,78.80
2018-09-14T04:07:29.867Z,78.90
2018-09-14T04:08:07.917Z,78.80
2018-09-14T04:08:45.767Z,78.70
2018-09-14T04:09:23.757Z,78.60
2018-09-14T04:10:01.724Z,78.70
2018-09-14T04:10:41.286Z,78.60
2018-09-14T04:11:19.214Z,78.70
2018-09-14T04:11:57.094Z,78.50
2018-09-14T04:12:34.924Z,78.60
2018-09-14T04:13:12.796Z,78.50
2018-09-14T04:13:50.733Z,78.60
2018-09-14T04:14:28.581Z,78.40
2018-09-14T04:15:07.079Z,78.50
2018-09-14T04:15:44.934Z,78.30
2018-09-14T04:16:23.004Z,78.40
2018-09-14T04:17:01.049Z,78.20
2018-09-14T04:17:39.077Z,78.40
2018-09-14T04:18:17.064Z,78.40
2018-09-14T04:18:59.500Z,78.30
2018-09-14T04:19:38.774Z,78.30
2018-09-14T04:20:16.795Z,78.30
2018-09-14T04:20:54.650Z,78.30
2018-09-14T04:21:33.594Z,78.40
2018-09-14T04:22:11.619Z,78.40
2018-09-14T04:22:49.572Z,78.50
2018-09-14T04:23:28.155Z,78.40
2018-09-14T04:24:06.463Z,78.40
2018-09-14T04:24:44.451Z,78.40
2018-09-14T04:25:22.290Z,78.30
2018-09-14T04:26:00.206Z,78.40
2018-09-14T04:26:38.047Z,78.20
2018-09-14T04:27:15.891Z,78.40
2018-09-14T04:27:53.977Z,78.20
2018-09-14T04:28:31.963Z,78.20
2018-09-14T04:29:09.881Z,78.30
2018-09-14T04:29:48.724Z,78.10
2018-09-14T04:30:26.659Z,78.20
2018-09-14T04:31:04.544Z,78.20
2018-09-14T04:31:43.495Z,78.10
2018-09-14T04:32:22.005Z,78.10
2018-09-14T04:33:00.024Z,78.10
2018-09-14T04:33:38.017Z,78.10
2018-09-14T04:34:16.608Z,78.20
2018-09-14T04:34:54.635Z,77.90
2018-09-14T04:35:32.533Z,78.00
2018-09-14T04:36:11.879Z,78.00
2018-09-14T04:36:50.945Z,78.00
2018-09-14T04:37:28.944Z,77.90
2018-09-14T04:38:07.011Z,78.00
2018-09-14T04:38:45.249Z,78.00
2018-09-14T04:39:23.196Z,78.10
2018-09-14T04:40:01.103Z,77.90
2018-09-14T04:40:39.687Z,78.10
2018-09-14T04:41:18.269Z,78.00
2018-09-14T04:41:56.226Z,77.90
2018-09-14T04:42:34.242Z,77.90
2018-09-14T04:43:12.144Z,78.10
2018-09-14T04:43:50.118Z,77.90
2018-09-14T04:44:27.997Z,77.90
2018-09-14T04:45:05.990Z,77.90
2018-09-14T04:45:44.274Z,77.90
2018-09-14T04:46:22.145Z,77.90
2018-09-14T04:47:00.122Z,77.80
2018-09-14T04:47:38.035Z,77.90
2018-09-14T04:48:16.268Z,77.80
2018-09-14T04:48:54.346Z,77.80
2018-09-14T04:49:32.917Z,77.80
2018-09-14T04:50:11.236Z,78.50
2018-09-14T04:50:49.256Z,77.70
2018-09-14T04:51:27.294Z,77.60
2018-09-14T04:52:05.134Z,77.50
2018-09-14T04:52:43.009Z,77.30
2018-09-14T04:53:21.013Z,77.50
2018-09-14T04:54:00.440Z,77.40
2018-09-14T04:54:38.447Z,77.40
2018-09-14T04:55:16.447Z,77.30
2018-09-14T04:55:55.388Z,77.30
2018-09-14T04:56:33.270Z,77.40
2018-09-14T04:57:11.884Z,77.50
2018-09-14T04:57:49.902Z,77.50
2018-09-14T04:58:28.804Z,77.10
2018-09-14T04:59:06.783Z,77.40
2018-09-14T04:59:44.825Z,77.30
2018-09-14T05:00:22.880Z,77.40
2018-09-14T05:01:00.819Z,77.20
2018-09-14T05:01:38.622Z,77.00
2018-09-14T05:02:17.555Z,77.10
2018-09-14T05:02:57.214Z,76.80
2018-09-14T05:03:35.175Z,76.90
2018-09-14T05:04:13.148Z,76.80
2018-09-14T05:04:51.134Z,77.10
2018-09-14T05:05:29.023Z,77.00
2018-09-14T05:06:06.966Z,77.70
2018-09-14T05:06:46.295Z,76.40
2018-09-14T05:07:26.200Z,76.50
2018-09-14T05:08:04.129Z,76.60
2018-09-14T05:08:42.002Z,76.40
2018-09-14T05:09:21.607Z,76.30
2018-09-14T05:09:59.431Z,77.40
2018-09-14T05:10:37.307Z,76.70
2018-09-14T05:11:16.447Z,76.80
2018-09-14T05:11:55.337Z,76.60
2018-09-14T05:12:33.262Z,76.70
2018-09-14T05:13:11.282Z,77.40
2018-09-14T05:13:49.148Z,76.60
2018-09-14T05:14:27.172Z,76.00
2018-09-14T05:15:04.953Z,76.40
2018-09-14T05:15:42.914Z,76.10
2018-09-14T05:16:21.707Z,76.00
2018-09-14T05:16:59.762Z,75.80
2018-09-14T05:17:37.783Z,75.80
2018-09-14T05:18:16.752Z,76.00
2018-09-14T05:18:54.713Z,76.30
2018-09-14T05:19:32.603Z,76.30
2018-09-14T05:20:11.072Z,76.20
2018-09-14T05:20:49.181Z,75.80
2018-09-14T05:21:27.283Z,75.90
2018-09-14T05:22:05.352Z,75.80
2018-09-14T05:22:43.326Z,75.80
2018-09-14T05:23:21.640Z,75.80
2018-09-14T05:23:59.989Z,75.80
2018-09-14T05:24:38.332Z,75.80
2018-09-14T05:25:16.326Z,76.00
2018-09-14T05:25:54.193Z,75.90
2018-09-14T05:26:32.084Z,75.70
2018-09-14T05:27:10.006Z,76.00
2018-09-14T05:27:47.982Z,75.90
2018-09-14T05:28:26.316Z,75.90
2018-09-14T05:29:04.619Z,76.60
2018-09-14T05:29:43.521Z,75.70
2018-09-14T05:30:21.295Z,75.90
2018-09-14T05:30:59.278Z,75.40
2018-09-14T05:31:37.311Z,75.60
2018-09-14T05:32:15.918Z,75.70
2018-09-14T05:32:54.462Z,75.50
2018-09-14T05:33:32.850Z,75.70
2018-09-14T05:34:10.961Z,75.70
2018-09-14T05:34:48.842Z,75.70
2018-09-14T05:35:26.722Z,75.30
2018-09-14T05:36:04.762Z,75.30
2018-09-14T05:36:42.770Z,75.30
2018-09-14T05:37:21.520Z,75.00
2018-09-14T05:37:59.522Z,75.00
2018-09-14T05:38:37.439Z,74.80
2018-09-14T05:39:15.361Z,75.00
2018-09-14T05:39:53.374Z,75.20
2018-09-14T05:40:31.368Z,75.10
2018-09-14T05:41:09.305Z,75.20
2018-09-14T05:41:48.013Z,75.50
2018-09-14T05:42:25.947Z,75.50
2018-09-14T05:43:03.936Z,75.20
2018-09-14T05:43:41.965Z,75.40
2018-09-14T05:44:20.908Z,75.10
2018-09-14T05:44:58.850Z,75.00
2018-09-14T05:45:36.781Z,74.90
2018-09-14T05:46:15.477Z,75.10
2018-09-14T05:46:53.422Z,74.90
2018-09-14T05:47:31.398Z,75.10
2018-09-14T05:48:09.292Z,75.30
2018-09-14T05:48:47.252Z,74.90
2018-09-14T05:49:25.247Z,75.20
2018-09-14T05:50:03.425Z,75.00
2018-09-14T05:50:41.936Z,75.00
2018-09-14T05:51:19.850Z,74.90
2018-09-14T05:51:57.831Z,75.00
2018-09-14T05:52:36.620Z,75.00
2018-09-14T05:53:16.035Z,75.00
2018-09-14T05:53:54.173Z,75.10
2018-09-14T05:54:34.901Z,75.10
2018-09-14T05:55:13.562Z,75.20
2018-09-14T05:55:51.500Z,75.20
2018-09-14T05:56:29.322Z,75.20
2018-09-14T05:57:07.233Z,75.00
2018-09-14T05:57:45.320Z,75.20
2018-09-14T05:58:23.175Z,75.90
2018-09-14T05:59:01.373Z,75.00
2018-09-14T05:59:39.405Z,75.10
2018-09-14T06:00:17.316Z,75.20
2018-09-14T06:00:55.112Z,75.00
2018-09-14T06:01:33.088Z,75.00
2018-09-14T06:02:10.991Z,75.20
2018-09-14T06:02:49.111Z,75.10
2018-09-14T06:03:27.310Z,75.20
2018-09-14T06:04:05.771Z,76.10
2018-09-14T06:04:44.328Z,75.30
2018-09-14T06:05:22.308Z,75.20
2018-09-14T06:06:00.067Z,75.10
2018-09-14T06:06:38.077Z,75.10
2018-09-14T06:07:16.183Z,75.00
2018-09-14T06:07:54.458Z,75.00
2018-09-14T06:08:32.320Z,74.80
2018-09-14T06:09:15.472Z,74.50
2018-09-14T06:09:53.396Z,74.30
2018-09-14T06:10:31.442Z,74.50
2018-09-14T06:11:09.461Z,74.40
2018-09-14T06:11:48.003Z,74.40
2018-09-14T06:12:26.278Z,74.50
2018-09-14T06:13:04.231Z,74.60
2018-09-14T06:13:42.197Z,74.50
2018-09-14T06:14:20.083Z,74.40
2018-09-14T06:14:58.031Z,74.30
2018-09-14T06:15:35.997Z,74.40
2018-09-14T06:16:14.223Z,74.40
2018-09-14T06:16:52.331Z,74.60
2018-09-14T06:17:30.243Z,74.30
2018-09-14T06:18:08.151Z,74.60
2018-09-14T06:18:46.008Z,74.70
2018-09-14T06:19:23.958Z,74.60
2018-09-14T06:20:02.891Z,74.60
2018-09-14T06:20:41.162Z,74.60
2018-09-14T06:21:19.282Z,74.50
2018-09-14T06:21:57.171Z,74.50
2018-09-14T06:22:35.208Z,74.60
2018-09-14T06:23:13.079Z,74.40
2018-09-14T06:23:51.702Z,74.60
2018-09-14T06:24:29.612Z,74.10
2018-09-14T06:25:09.693Z,74.20
2018-09-14T06:25:47.827Z,74.20
2018-09-14T06:26:25.750Z,73.90
2018-09-14T06:27:03.666Z,73.60
2018-09-14T06:27:41.678Z,73.30
2018-09-14T06:28:19.567Z,73.30
2018-09-14T06:28:57.425Z,73.60
2018-09-14T06:29:35.962Z,73.30
2018-09-14T06:30:13.913Z,73.60
2018-09-14T06:30:51.899Z,73.30
2018-09-14T06:31:29.888Z,73.40
2018-09-14T06:32:07.852Z,73.10
2018-09-14T06:32:45.699Z,73.40
2018-09-14T06:33:27.175Z,73.60
2018-09-14T06:34:05.357Z,73.70
2018-09-14T06:34:43.308Z,73.50
2018-09-14T06:35:21.292Z,73.60
2018-09-14T06:35:59.177Z,73.50
2018-09-14T06:36:38.495Z,74.20
2018-09-14T06:37:16.518Z,73.10
2018-09-14T06:37:55.559Z,73.60
2018-09-14T06:38:33.863Z,73.70
2018-09-14T06:39:13.868Z,73.20
2018-09-14T06:39:51.832Z,73.80
2018-09-14T06:40:29.771Z,73.60
2018-09-14T06:41:07.777Z,73.70
2018-09-14T06:41:45.726Z,73.50
2018-09-14T06:42:25.493Z,73.00
2018-09-14T06:43:03.745Z,73.20
2018-09-14T06:43:41.619Z,73.00
2018-09-14T06:44:19.455Z,72.60
2018-09-14T06:44:57.349Z,72.70
2018-09-14T06:45:35.284Z,72.90
2018-09-14T06:46:13.391Z,73.00
2018-09-14T06:46:51.712Z,73.10
2018-09-14T06:47:29.745Z,73.20
2018-09-14T06:48:07.608Z,72.90
2018-09-14T06:48:45.489Z,72.80
2018-09-14T06:49:23.365Z,72.90
2018-09-14T06:50:01.305Z,72.50
2018-09-14T06:50:39.274Z,72.60
2018-09-14T06:51:17.503Z,72.80
2018-09-14T06:51:55.525Z,72.90
2018-09-14T06:52:33.537Z,73.00
2018-09-14T06:53:11.508Z,72.80
2018-09-14T06:53:49.458Z,73.10
2018-09-14T06:54:27.454Z,72.70
2018-09-14T06:55:07.056Z,72.90
2018-09-14T06:55:47.425Z,72.80
2018-09-14T06:56:25.383Z,72.80
2018-09-14T06:57:03.158Z,72.70
2018-09-14T06:57:41.093Z,72.70
2018-09-14T06:58:19.369Z,72.70
2018-09-14T06:58:57.461Z,72.90
2018-09-14T06:59:35.797Z,73.10
2018-09-14T07:00:14.250Z,73.00
2018-09-14T07:00:52.307Z,73.10
2018-09-14T07:01:30.323Z,73.00
2018-09-14T07:02:08.288Z,73.10
2018-09-14T07:02:46.268Z,72.70
2018-09-14T07:03:24.268Z,73.10
2018-09-14T07:04:02.918Z,73.20
2018-09-14T07:04:43.520Z,73.40
2018-09-14T07:05:21.431Z,73.30
2018-09-14T07:05:59.449Z,72.90
2018-09-14T07:06:37.337Z,73.40
2018-09-14T07:07:15.366Z,73.30
2018-09-14T07:07:53.338Z,73.30
2018-09-14T07:08:32.153Z,73.30
2018-09-14T07:09:11.854Z,74.10
2018-09-14T07:09:49.780Z,73.20
2018-09-14T07:10:27.606Z,73.30
2018-09-14T07:11:05.545Z,73.20
2018-09-14T07:11:43.513Z,73.10
2018-09-14T07:12:21.503Z,73.20
2018-09-14T07:13:00.103Z,73.20
2018-09-14T07:13:37.921Z,73.90
2018-09-14T07:14:16.341Z,73.30
2018-09-14T07:14:54.287Z,73.40
2018-09-14T07:15:32.234Z,73.40
2018-09-14T07:16:10.065Z,73.10
2018-09-14T07:16:49.775Z,73.00
2018-09-14T07:17:28.905Z,73.10
2018-09-14T07:18:06.792Z,73.20
2018-09-14T07:18:44.683Z,73.00
2018-09-14T07:19:22.601Z,73.30
2018-09-14T07:20:00.474Z,73.20
2018-09-14T07:20:38.474Z,73.30
2018-09-14T07:21:17.079Z,73.20
2018-09-14T07:21:55.276Z,73.20
2018-09-14T07:22:33.356Z,73.40
2018-09-14T07:23:11.435Z,73.40
2018-09-14T07:23:49.308Z,73.50
2018-09-14T07:24:27.935Z,73.50
2018-09-14T07:25:05.858Z,73.40
2018-09-14T07:25:44.062Z,73.50
2018-09-14T07:26:23.491Z,73.30
2018-09-14T07:27:01.447Z,73.50
2018-09-14T07:27:39.374Z,73.60
2018-09-14T07:28:17.235Z,73.50
2018-09-14T07:28:55.224Z,73.50
2018-09-14T07:29:33.156Z,73.60
2018-09-14T07:30:11.548Z,73.50
2018-09-14T07:30:49.481Z,73.50
2018-09-14T07:31:27.335Z,74.10
2018-09-14T07:32:05.458Z,73.40
2018-09-14T07:32:43.417Z,73.40
2018-09-14T07:33:21.358Z,73.30
2018-09-14T07:33:59.311Z,73.50
2018-09-14T07:34:37.652Z,73.50
2018-09-14T07:35:15.525Z,73.40
2018-09-14T07:35:53.382Z,73.50
2018-09-14T07:36:31.239Z,73.40
2018-09-14T07:37:09.148Z,73.50
2018-09-14T07:37:47.069Z,73.50
2018-09-14T07:38:25.022Z,73.30
2018-09-14T07:39:03.560Z,73.70
2018-09-14T07:39:41.470Z,73.60
2018-09-14T07:40:20.912Z,73.60
2018-09-14T07:40:58.811Z,74.30
2018-09-14T07:41:36.764Z,73.50
2018-09-14T07:42:14.772Z,73.70
2018-09-14T07:42:53.062Z,73.60
2018-09-14T07:43:31.726Z,73.70
2018-09-14T07:44:09.806Z,73.80
2018-09-14T07:44:47.834Z,73.50
2018-09-14T07:45:26.430Z,73.60
2018-09-14T07:46:04.334Z,73.60
2018-09-14T07:46:42.278Z,73.70
2018-09-14T07:47:21.377Z,73.70
2018-09-14T07:48:00.866Z,73.80
2018-09-14T07:48:38.867Z,74.40
2018-09-14T07:49:17.001Z,73.80
2018-09-14T07:49:54.906Z,73.70
2018-09-14T07:50:32.825Z,73.70
2018-09-14T07:51:11.018Z,73.70
2018-09-14T07:51:49.216Z,73.70
2018-09-14T07:52:27.356Z,73.70
2018-09-14T07:53:05.383Z,73.70
2018-09-14T07:53:43.206Z,73.60
2018-09-14T07:54:21.165Z,73.70
2018-09-14T07:54:59.136Z,73.70
2018-09-14T07:55:37.233Z,73.80
2018-09-14T07:56:17.591Z,73.70
2018-09-14T07:56:55.585Z,73.70
2018-09-14T07:57:33.409Z,73.70
2018-09-14T07:58:11.661Z,73.80
2018-09-14T07:58:49.643Z,73.80
2018-09-14T07:59:27.604Z,73.90
2018-09-14T08:00:05.968Z,73.90
2018-09-14T08:00:44.447Z,73.70
2018-09-14T08:01:22.295Z,73.80
2018-09-14T08:02:00.330Z,73.70
2018-09-14T08:02:38.218Z,73.70
2018-09-14T08:03:17.044Z,73.80
2018-09-14T08:03:54.925Z,73.80
2018-09-14T08:04:33.205Z,73.80
2018-09-14T08:05:11.465Z,73.80
2018-09-14T08:05:49.271Z,73.80
2018-09-14T08:06:27.274Z,73.90
2018-09-14T08:07:05.144Z,73.90
2018-09-14T08:07:43.065Z,73.90
2018-09-14T08:08:21.800Z,73.80
2018-09-14T08:09:00.029Z,73.80
2018-09-14T08:09:38.205Z,74.70
2018-09-14T08:10:16.726Z,73.90
2018-09-14T08:10:55.468Z,73.90
2018-09-14T08:11:33.307Z,73.90
2018-09-14T08:12:11.302Z,73.80
2018-09-14T08:12:49.171Z,73.90
2018-09-14T08:13:27.899Z,73.90
2018-09-14T08:14:09.556Z,74.00
2018-09-14T08:14:47.952Z,73.90
2018-09-14T08:15:25.950Z,73.80
2018-09-14T08:16:03.697Z,73.90
2018-09-14T08:16:41.667Z,74.00
2018-09-14T08:17:19.498Z,74.00
2018-09-14T08:17:57.903Z,73.90
2018-09-14T08:18:35.824Z,73.90